sensor_id;sensor_type;location;lat;lon;timestamp;P1;durP1;ratioP1;P2;durP2;ratioP2
12480;SDS011;6305;48.398;11.762;2023-02-23T00:01:16;23.38;;;14.55;;
12480;SDS011;6305;48.398;11.762;2023-02-23T00:03:46;24.17;;;14.00;;
12480;SDS011;6305;48.398;11.762;2023-02-23T00:06:16;22.65;;;14.18;;
12480;SDS011;6305;48.398;11.762;2023-02-23T00:08:44;24.00;;;15.13;;
12480;SDS011;6305;48.398;11.762;2023-02-23T00:11:12;23.08;;;13.98;;
12480;SDS011;6305;48.398;11.762;2023-02-23T00:13:41;27.50;;;15.18;;
12480;SDS011;6305;48.398;11.762;2023-02-23T00:16:11;25.73;;;15.20;;
12480;SDS011;6305;48.398;11.762;2023-02-23T00:18:41;31.58;;;15.70;;
12480;SDS011;6305;48.398;11.762;2023-02-23T00:21:12;27.13;;;15.40;;
12480;SDS011;6305;48.398;11.762;2023-02-23T00:23:47;27.27;;;15.38;;
12480;SDS011;6305;48.398;11.762;2023-02-23T00:26:16;26.85;;;16.52;;
12480;SDS011;6305;48.398;11.762;2023-02-23T00:28:45;27.90;;;15.80;;
12480;SDS011;6305;48.398;11.762;2023-02-23T00:31:13;28.45;;;14.77;;
12480;SDS011;6305;48.398;11.762;2023-02-23T00:33:40;28.77;;;15.95;;
12480;SDS011;6305;48.398;11.762;2023-02-23T00:36:08;28.42;;;15.10;;
12480;SDS011;6305;48.398;11.762;2023-02-23T00:38:37;27.90;;;16.10;;
12480;SDS011;6305;48.398;11.762;2023-02-23T00:41:08;24.77;;;14.63;;
12480;SDS011;6305;48.398;11.762;2023-02-23T00:43:37;29.77;;;17.00;;
12480;SDS011;6305;48.398;11.762;2023-02-23T00:46:11;25.17;;;14.93;;
12480;SDS011;6305;48.398;11.762;2023-02-23T00:48:42;25.58;;;15.80;;
12480;SDS011;6305;48.398;11.762;2023-02-23T00:51:10;29.50;;;16.23;;
12480;SDS011;6305;48.398;11.762;2023-02-23T00:53:38;28.15;;;16.75;;
12480;SDS011;6305;48.398;11.762;2023-02-23T00:56:07;30.40;;;17.30;;
12480;SDS011;6305;48.398;11.762;2023-02-23T00:58:35;32.88;;;16.83;;
12480;SDS011;6305;48.398;11.762;2023-02-23T01:01:04;29.02;;;17.38;;
12480;SDS011;6305;48.398;11.762;2023-02-23T01:03:31;31.38;;;16.58;;
12480;SDS011;6305;48.398;11.762;2023-02-23T01:05:58;27.50;;;17.08;;
12480;SDS011;6305;48.398;11.762;2023-02-23T01:08:28;29.08;;;17.27;;
12480;SDS011;6305;48.398;11.762;2023-02-23T01:10:56;30.83;;;17.23;;
12480;SDS011;6305;48.398;11.762;2023-02-23T01:13:25;29.58;;;16.33;;
12480;SDS011;6305;48.398;11.762;2023-02-23T01:15:52;27.98;;;17.05;;
12480;SDS011;6305;48.398;11.762;2023-02-23T01:18:19;29.27;;;16.30;;
12480;SDS011;6305;48.398;11.762;2023-02-23T01:20:46;27.67;;;16.30;;
12480;SDS011;6305;48.398;11.762;2023-02-23T01:23:15;29.13;;;16.23;;
12480;SDS011;6305;48.398;11.762;2023-02-23T01:25:45;29.60;;;16.40;;
12480;SDS011;6305;48.398;11.762;2023-02-23T01:28:12;29.65;;;16.50;;
12480;SDS011;6305;48.398;11.762;2023-02-23T01:30:40;32.20;;;16.67;;
12480;SDS011;6305;48.398;11.762;2023-02-23T01:33:07;32.58;;;16.77;;
12480;SDS011;6305;48.398;11.762;2023-02-23T01:35:34;26.58;;;16.83;;
12480;SDS011;6305;48.398;11.762;2023-02-23T01:38:01;30.35;;;17.42;;
12480;SDS011;6305;48.398;11.762;2023-02-23T01:40:29;30.50;;;17.58;;
12480;SDS011;6305;48.398;11.762;2023-02-23T01:42:57;30.73;;;17.48;;
12480;SDS011;6305;48.398;11.762;2023-02-23T01:45:30;28.48;;;17.05;;
12480;SDS011;6305;48.398;11.762;2023-02-23T01:48:01;25.85;;;15.73;;
12480;SDS011;6305;48.398;11.762;2023-02-23T01:50:37;26.33;;;16.50;;
12480;SDS011;6305;48.398;11.762;2023-02-23T01:53:11;30.27;;;17.08;;
12480;SDS011;6305;48.398;11.762;2023-02-23T01:55:39;27.63;;;17.60;;
12480;SDS011;6305;48.398;11.762;2023-02-23T01:58:07;31.90;;;17.33;;
12480;SDS011;6305;48.398;11.762;2023-02-23T02:00:40;30.58;;;16.98;;
12480;SDS011;6305;48.398;11.762;2023-02-23T02:03:11;28.80;;;17.48;;
12480;SDS011;6305;48.398;11.762;2023-02-23T02:05:42;31.58;;;17.75;;
12480;SDS011;6305;48.398;11.762;2023-02-23T02:08:10;28.27;;;17.25;;
12480;SDS011;6305;48.398;11.762;2023-02-23T02:10:38;28.70;;;17.23;;
12480;SDS011;6305;48.398;11.762;2023-02-23T02:13:06;30.20;;;17.52;;
12480;SDS011;6305;48.398;11.762;2023-02-23T02:15:36;29.00;;;17.25;;
12480;SDS011;6305;48.398;11.762;2023-02-23T02:18:13;32.58;;;18.23;;
12480;SDS011;6305;48.398;11.762;2023-02-23T02:20:59;31.25;;;18.02;;
12480;SDS011;6305;48.398;11.762;2023-02-23T02:23:48;32.00;;;17.52;;
12480;SDS011;6305;48.398;11.762;2023-02-23T02:26:41;33.20;;;18.65;;
12480;SDS011;6305;48.398;11.762;2023-02-23T02:29:27;29.17;;;18.05;;
12480;SDS011;6305;48.398;11.762;2023-02-23T02:32:23;28.15;;;17.52;;
12480;SDS011;6305;48.398;11.762;2023-02-23T02:35:24;36.40;;;19.23;;
12480;SDS011;6305;48.398;11.762;2023-02-23T02:38:26;32.88;;;17.67;;
12480;SDS011;6305;48.398;11.762;2023-02-23T02:41:01;29.38;;;17.80;;
12480;SDS011;6305;48.398;11.762;2023-02-23T02:43:33;32.22;;;18.60;;
12480;SDS011;6305;48.398;11.762;2023-02-23T02:46:09;32.03;;;18.52;;
12480;SDS011;6305;48.398;11.762;2023-02-23T02:48:44;35.25;;;19.75;;
12480;SDS011;6305;48.398;11.762;2023-02-23T02:51:18;30.70;;;18.88;;
12480;SDS011;6305;48.398;11.762;2023-02-23T02:53:52;32.40;;;18.23;;
12480;SDS011;6305;48.398;11.762;2023-02-23T02:56:31;36.25;;;20.33;;
12480;SDS011;6305;48.398;11.762;2023-02-23T02:59:06;33.28;;;18.50;;
12480;SDS011;6305;48.398;11.762;2023-02-23T03:01:52;34.20;;;19.73;;
12480;SDS011;6305;48.398;11.762;2023-02-23T03:04:37;31.85;;;19.20;;
12480;SDS011;6305;48.398;11.762;2023-02-23T03:07:24;39.50;;;21.02;;
12480;SDS011;6305;48.398;11.762;2023-02-23T03:10:15;34.25;;;19.50;;
12480;SDS011;6305;48.398;11.762;2023-02-23T03:13:15;35.85;;;19.58;;
12480;SDS011;6305;48.398;11.762;2023-02-23T03:16:10;35.72;;;20.15;;
12480;SDS011;6305;48.398;11.762;2023-02-23T03:19:07;36.00;;;20.00;;
12480;SDS011;6305;48.398;11.762;2023-02-23T03:22:00;34.47;;;19.27;;
12480;SDS011;6305;48.398;11.762;2023-02-23T03:24:53;36.05;;;19.52;;
12480;SDS011;6305;48.398;11.762;2023-02-23T03:27:45;37.90;;;20.42;;
12480;SDS011;6305;48.398;11.762;2023-02-23T03:30:38;36.50;;;20.73;;
12480;SDS011;6305;48.398;11.762;2023-02-23T03:33:31;40.88;;;20.55;;
12480;SDS011;6305;48.398;11.762;2023-02-23T03:36:23;35.33;;;20.67;;
12480;SDS011;6305;48.398;11.762;2023-02-23T03:39:11;37.50;;;20.73;;
12480;SDS011;6305;48.398;11.762;2023-02-23T03:42:01;41.80;;;21.30;;
12480;SDS011;6305;48.398;11.762;2023-02-23T03:44:51;38.75;;;21.27;;
12480;SDS011;6305;48.398;11.762;2023-02-23T03:47:38;39.03;;;21.20;;
12480;SDS011;6305;48.398;11.762;2023-02-23T03:50:27;45.17;;;21.48;;
12480;SDS011;6305;48.398;11.762;2023-02-23T03:53:19;38.75;;;20.95;;
12480;SDS011;6305;48.398;11.762;2023-02-23T03:56:08;37.83;;;21.65;;
12480;SDS011;6305;48.398;11.762;2023-02-23T03:58:55;43.03;;;22.95;;
12480;SDS011;6305;48.398;11.762;2023-02-23T04:01:45;43.03;;;22.13;;
12480;SDS011;6305;48.398;11.762;2023-02-23T04:04:31;40.17;;;21.45;;
12480;SDS011;6305;48.398;11.762;2023-02-23T04:07:17;42.40;;;22.25;;
12480;SDS011;6305;48.398;11.762;2023-02-23T04:10:03;39.50;;;22.02;;
12480;SDS011;6305;48.398;11.762;2023-02-23T04:12:50;39.67;;;21.88;;
12480;SDS011;6305;48.398;11.762;2023-02-23T04:15:40;40.53;;;22.33;;
12480;SDS011;6305;48.398;11.762;2023-02-23T04:18:13;45.83;;;23.30;;
12480;SDS011;6305;48.398;11.762;2023-02-23T04:20:42;41.85;;;23.08;;
12480;SDS011;6305;48.398;11.762;2023-02-23T04:23:09;42.75;;;23.65;;
12480;SDS011;6305;48.398;11.762;2023-02-23T04:25:36;44.58;;;22.70;;
12480;SDS011;6305;48.398;11.762;2023-02-23T04:28:03;42.60;;;22.88;;
12480;SDS011;6305;48.398;11.762;2023-02-23T04:30:30;44.17;;;23.63;;
12480;SDS011;6305;48.398;11.762;2023-02-23T04:32:57;43.63;;;23.85;;
12480;SDS011;6305;48.398;11.762;2023-02-23T04:35:26;40.50;;;22.73;;
12480;SDS011;6305;48.398;11.762;2023-02-23T04:37:55;47.42;;;24.45;;
12480;SDS011;6305;48.398;11.762;2023-02-23T04:40:23;43.75;;;23.63;;
12480;SDS011;6305;48.398;11.762;2023-02-23T04:42:50;46.88;;;23.98;;
12480;SDS011;6305;48.398;11.762;2023-02-23T04:45:18;44.25;;;23.98;;
12480;SDS011;6305;48.398;11.762;2023-02-23T04:47:46;48.90;;;24.50;;
12480;SDS011;6305;48.398;11.762;2023-02-23T04:50:13;50.33;;;25.08;;
12480;SDS011;6305;48.398;11.762;2023-02-23T04:52:42;48.42;;;25.85;;
12480;SDS011;6305;48.398;11.762;2023-02-23T04:55:12;52.40;;;26.02;;
12480;SDS011;6305;48.398;11.762;2023-02-23T04:57:42;48.08;;;24.90;;
12480;SDS011;6305;48.398;11.762;2023-02-23T05:00:09;48.85;;;26.75;;
12480;SDS011;6305;48.398;11.762;2023-02-23T05:02:36;49.72;;;25.80;;
12480;SDS011;6305;48.398;11.762;2023-02-23T05:05:04;45.53;;;26.17;;
12480;SDS011;6305;48.398;11.762;2023-02-23T05:07:31;46.72;;;23.95;;
12480;SDS011;6305;48.398;11.762;2023-02-23T05:09:59;49.85;;;25.48;;
12480;SDS011;6305;48.398;11.762;2023-02-23T05:12:26;47.17;;;25.90;;
12480;SDS011;6305;48.398;11.762;2023-02-23T05:14:53;52.15;;;26.33;;
12480;SDS011;6305;48.398;11.762;2023-02-23T05:17:21;52.58;;;26.27;;
12480;SDS011;6305;48.398;11.762;2023-02-23T05:19:48;55.03;;;27.88;;
12480;SDS011;6305;48.398;11.762;2023-02-23T05:22:15;58.00;;;27.05;;
12480;SDS011;6305;48.398;11.762;2023-02-23T05:24:41;52.15;;;26.70;;
12480;SDS011;6305;48.398;11.762;2023-02-23T05:27:10;54.05;;;27.73;;
12480;SDS011;6305;48.398;11.762;2023-02-23T05:29:38;55.20;;;28.42;;
12480;SDS011;6305;48.398;11.762;2023-02-23T05:32:05;58.65;;;27.70;;
12480;SDS011;6305;48.398;11.762;2023-02-23T05:34:32;58.65;;;28.00;;
12480;SDS011;6305;48.398;11.762;2023-02-23T05:36:59;58.45;;;27.83;;
12480;SDS011;6305;48.398;11.762;2023-02-23T05:39:26;59.17;;;28.58;;
12480;SDS011;6305;48.398;11.762;2023-02-23T05:41:53;53.70;;;27.52;;
12480;SDS011;6305;48.398;11.762;2023-02-23T05:44:21;58.42;;;29.60;;
12480;SDS011;6305;48.398;11.762;2023-02-23T05:46:48;59.40;;;28.40;;
12480;SDS011;6305;48.398;11.762;2023-02-23T05:49:15;55.65;;;28.17;;
12480;SDS011;6305;48.398;11.762;2023-02-23T05:51:42;57.35;;;27.55;;
12480;SDS011;6305;48.398;11.762;2023-02-23T05:54:09;55.38;;;28.98;;
12480;SDS011;6305;48.398;11.762;2023-02-23T05:56:38;54.28;;;28.83;;
12480;SDS011;6305;48.398;11.762;2023-02-23T05:59:05;56.53;;;28.13;;
12480;SDS011;6305;48.398;11.762;2023-02-23T06:01:33;56.05;;;27.67;;
12480;SDS011;6305;48.398;11.762;2023-02-23T06:04:00;58.83;;;29.33;;
12480;SDS011;6305;48.398;11.762;2023-02-23T06:06:27;63.22;;;29.60;;
12480;SDS011;6305;48.398;11.762;2023-02-23T06:08:54;59.95;;;29.27;;
12480;SDS011;6305;48.398;11.762;2023-02-23T06:11:21;56.20;;;28.88;;
12480;SDS011;6305;48.398;11.762;2023-02-23T06:13:48;57.70;;;29.92;;
12480;SDS011;6305;48.398;11.762;2023-02-23T06:16:15;66.10;;;29.85;;
12480;SDS011;6305;48.398;11.762;2023-02-23T06:18:43;54.85;;;29.63;;
12480;SDS011;6305;48.398;11.762;2023-02-23T06:21:10;62.75;;;29.90;;
12480;SDS011;6305;48.398;11.762;2023-02-23T06:23:37;61.65;;;28.88;;
12480;SDS011;6305;48.398;11.762;2023-02-23T06:26:04;56.92;;;29.77;;
12480;SDS011;6305;48.398;11.762;2023-02-23T06:28:32;56.75;;;29.55;;
12480;SDS011;6305;48.398;11.762;2023-02-23T06:31:00;59.10;;;30.05;;
12480;SDS011;6305;48.398;11.762;2023-02-23T06:33:27;55.35;;;29.42;;
12480;SDS011;6305;48.398;11.762;2023-02-23T06:35:56;52.95;;;28.08;;
12480;SDS011;6305;48.398;11.762;2023-02-23T06:38:23;50.60;;;27.27;;
12480;SDS011;6305;48.398;11.762;2023-02-23T06:40:50;50.75;;;26.67;;
12480;SDS011;6305;48.398;11.762;2023-02-23T06:43:17;50.50;;;26.35;;
12480;SDS011;6305;48.398;11.762;2023-02-23T06:45:44;46.13;;;26.15;;
12480;SDS011;6305;48.398;11.762;2023-02-23T06:48:12;44.97;;;24.02;;
12480;SDS011;6305;48.398;11.762;2023-02-23T06:50:38;43.88;;;23.50;;
12480;SDS011;6305;48.398;11.762;2023-02-23T06:53:07;43.13;;;23.40;;
12480;SDS011;6305;48.398;11.762;2023-02-23T06:55:34;39.80;;;24.10;;
12480;SDS011;6305;48.398;11.762;2023-02-23T06:58:01;36.03;;;21.50;;
12480;SDS011;6305;48.398;11.762;2023-02-23T07:00:29;36.75;;;21.55;;
12480;SDS011;6305;48.398;11.762;2023-02-23T07:02:56;34.00;;;20.70;;
12480;SDS011;6305;48.398;11.762;2023-02-23T07:05:24;35.38;;;21.52;;
12480;SDS011;6305;48.398;11.762;2023-02-23T07:07:51;35.03;;;20.10;;
12480;SDS011;6305;48.398;11.762;2023-02-23T07:10:19;33.78;;;20.25;;
12480;SDS011;6305;48.398;11.762;2023-02-23T07:12:46;33.72;;;20.33;;
12480;SDS011;6305;48.398;11.762;2023-02-23T07:15:13;34.60;;;21.00;;
12480;SDS011;6305;48.398;11.762;2023-02-23T07:17:41;30.92;;;19.23;;
12480;SDS011;6305;48.398;11.762;2023-02-23T07:20:10;32.30;;;19.10;;
12480;SDS011;6305;48.398;11.762;2023-02-23T07:22:38;32.53;;;19.92;;
12480;SDS011;6305;48.398;11.762;2023-02-23T07:25:05;32.95;;;19.33;;
12480;SDS011;6305;48.398;11.762;2023-02-23T07:27:34;33.20;;;19.63;;
12480;SDS011;6305;48.398;11.762;2023-02-23T07:30:01;36.13;;;20.33;;
12480;SDS011;6305;48.398;11.762;2023-02-23T07:32:29;28.88;;;17.38;;
12480;SDS011;6305;48.398;11.762;2023-02-23T07:34:56;31.75;;;19.23;;
12480;SDS011;6305;48.398;11.762;2023-02-23T07:37:23;30.55;;;18.80;;
12480;SDS011;6305;48.398;11.762;2023-02-23T07:39:50;27.98;;;18.05;;
12480;SDS011;6305;48.398;11.762;2023-02-23T07:42:17;30.52;;;18.80;;
12480;SDS011;6305;48.398;11.762;2023-02-23T07:44:46;28.95;;;18.60;;
12480;SDS011;6305;48.398;11.762;2023-02-23T07:47:12;29.73;;;19.15;;
12480;SDS011;6305;48.398;11.762;2023-02-23T07:49:39;30.90;;;18.55;;
12480;SDS011;6305;48.398;11.762;2023-02-23T07:52:06;27.85;;;18.35;;
12480;SDS011;6305;48.398;11.762;2023-02-23T07:54:33;31.63;;;18.65;;
12480;SDS011;6305;48.398;11.762;2023-02-23T07:57:00;29.17;;;17.50;;
12480;SDS011;6305;48.398;11.762;2023-02-23T07:59:27;26.85;;;17.15;;
12480;SDS011;6305;48.398;11.762;2023-02-23T08:01:55;27.42;;;16.38;;
12480;SDS011;6305;48.398;11.762;2023-02-23T08:04:22;25.92;;;17.00;;
12480;SDS011;6305;48.398;11.762;2023-02-23T08:06:49;28.30;;;16.73;;
12480;SDS011;6305;48.398;11.762;2023-02-23T08:09:16;27.00;;;16.90;;
12480;SDS011;6305;48.398;11.762;2023-02-23T08:11:43;21.73;;;14.93;;
12480;SDS011;6305;48.398;11.762;2023-02-23T08:14:10;25.63;;;17.00;;
12480;SDS011;6305;48.398;11.762;2023-02-23T08:16:37;22.83;;;15.80;;
12480;SDS011;6305;48.398;11.762;2023-02-23T08:19:05;24.95;;;16.77;;
12480;SDS011;6305;48.398;11.762;2023-02-23T08:21:32;24.55;;;16.52;;
12480;SDS011;6305;48.398;11.762;2023-02-23T08:23:59;23.60;;;16.20;;
12480;SDS011;6305;48.398;11.762;2023-02-23T08:26:26;26.98;;;17.20;;
12480;SDS011;6305;48.398;11.762;2023-02-23T08:28:54;27.08;;;17.77;;
12480;SDS011;6305;48.398;11.762;2023-02-23T08:31:21;27.45;;;16.98;;
12480;SDS011;6305;48.398;11.762;2023-02-23T08:33:48;25.02;;;16.92;;
12480;SDS011;6305;48.398;11.762;2023-02-23T08:36:17;26.33;;;17.30;;
12480;SDS011;6305;48.398;11.762;2023-02-23T08:38:45;26.25;;;16.05;;
12480;SDS011;6305;48.398;11.762;2023-02-23T08:41:12;29.60;;;17.77;;
12480;SDS011;6305;48.398;11.762;2023-02-23T08:43:40;26.52;;;17.40;;
12480;SDS011;6305;48.398;11.762;2023-02-23T08:46:07;24.95;;;16.67;;
12480;SDS011;6305;48.398;11.762;2023-02-23T08:48:34;25.83;;;16.92;;
12480;SDS011;6305;48.398;11.762;2023-02-23T08:51:03;24.58;;;16.52;;
12480;SDS011;6305;48.398;11.762;2023-02-23T08:53:32;23.33;;;16.45;;
12480;SDS011;6305;48.398;11.762;2023-02-23T08:55:59;25.90;;;17.08;;
12480;SDS011;6305;48.398;11.762;2023-02-23T08:58:28;24.17;;;16.60;;
12480;SDS011;6305;48.398;11.762;2023-02-23T09:00:56;23.40;;;16.52;;
12480;SDS011;6305;48.398;11.762;2023-02-23T09:03:23;25.27;;;17.10;;
12480;SDS011;6305;48.398;11.762;2023-02-23T09:05:53;25.27;;;17.05;;
12480;SDS011;6305;48.398;11.762;2023-02-23T09:08:20;26.27;;;16.95;;
12480;SDS011;6305;48.398;11.762;2023-02-23T09:10:48;26.30;;;17.10;;
12480;SDS011;6305;48.398;11.762;2023-02-23T09:13:15;23.50;;;15.93;;
12480;SDS011;6305;48.398;11.762;2023-02-23T09:15:42;26.83;;;15.80;;
12480;SDS011;6305;48.398;11.762;2023-02-23T09:18:10;23.98;;;16.30;;
12480;SDS011;6305;48.398;11.762;2023-02-23T09:20:40;22.38;;;15.98;;
12480;SDS011;6305;48.398;11.762;2023-02-23T09:23:07;23.25;;;16.25;;
12480;SDS011;6305;48.398;11.762;2023-02-23T09:25:38;21.63;;;15.85;;
12480;SDS011;6305;48.398;11.762;2023-02-23T09:28:09;23.52;;;16.25;;
12480;SDS011;6305;48.398;11.762;2023-02-23T09:30:38;23.70;;;16.58;;
12480;SDS011;6305;48.398;11.762;2023-02-23T09:33:05;25.80;;;16.63;;
12480;SDS011;6305;48.398;11.762;2023-02-23T09:35:33;22.92;;;16.00;;
12480;SDS011;6305;48.398;11.762;2023-02-23T09:38:01;23.30;;;15.63;;
12480;SDS011;6305;48.398;11.762;2023-02-23T09:40:30;23.92;;;15.38;;
12480;SDS011;6305;48.398;11.762;2023-02-23T09:43:04;23.20;;;15.77;;
12480;SDS011;6305;48.398;11.762;2023-02-23T09:45:39;21.70;;;15.18;;
12480;SDS011;6305;48.398;11.762;2023-02-23T09:48:12;22.95;;;15.70;;
12480;SDS011;6305;48.398;11.762;2023-02-23T09:50:42;20.65;;;14.35;;
12480;SDS011;6305;48.398;11.762;2023-02-23T09:53:14;22.20;;;14.65;;
12480;SDS011;6305;48.398;11.762;2023-02-23T09:55:55;23.38;;;15.45;;
12480;SDS011;6305;48.398;11.762;2023-02-23T09:58:25;23.20;;;15.23;;
12480;SDS011;6305;48.398;11.762;2023-02-23T10:01:04;24.42;;;14.98;;
12480;SDS011;6305;48.398;11.762;2023-02-23T10:03:48;21.40;;;14.77;;
12480;SDS011;6305;48.398;11.762;2023-02-23T10:06:19;21.35;;;14.10;;
12480;SDS011;6305;48.398;11.762;2023-02-23T10:08:47;21.20;;;14.23;;
12480;SDS011;6305;48.398;11.762;2023-02-23T10:11:23;19.55;;;14.20;;
12480;SDS011;6305;48.398;11.762;2023-02-23T10:13:57;22.63;;;14.73;;
12480;SDS011;6305;48.398;11.762;2023-02-23T10:16:41;21.55;;;14.25;;
12480;SDS011;6305;48.398;11.762;2023-02-23T10:19:17;21.35;;;14.05;;
12480;SDS011;6305;48.398;11.762;2023-02-23T10:21:53;21.45;;;14.10;;
12480;SDS011;6305;48.398;11.762;2023-02-23T10:24:23;18.92;;;12.70;;
12480;SDS011;6305;48.398;11.762;2023-02-23T10:26:56;19.23;;;12.93;;
12480;SDS011;6305;48.398;11.762;2023-02-23T10:29:27;20.45;;;12.40;;
12480;SDS011;6305;48.398;11.762;2023-02-23T10:32:00;19.20;;;12.02;;
12480;SDS011;6305;48.398;11.762;2023-02-23T10:34:30;19.35;;;13.20;;
12480;SDS011;6305;48.398;11.762;2023-02-23T10:36:58;17.20;;;12.90;;
12480;SDS011;6305;48.398;11.762;2023-02-23T10:39:26;20.00;;;13.55;;
12480;SDS011;6305;48.398;11.762;2023-02-23T10:41:55;20.00;;;13.65;;
12480;SDS011;6305;48.398;11.762;2023-02-23T10:44:25;18.35;;;13.13;;
12480;SDS011;6305;48.398;11.762;2023-02-23T10:46:54;20.67;;;13.63;;
12480;SDS011;6305;48.398;11.762;2023-02-23T10:49:28;18.95;;;13.05;;
12480;SDS011;6305;48.398;11.762;2023-02-23T10:52:03;18.42;;;13.20;;
12480;SDS011;6305;48.398;11.762;2023-02-23T10:54:39;21.25;;;13.48;;
12480;SDS011;6305;48.398;11.762;2023-02-23T10:57:18;18.38;;;12.68;;
12480;SDS011;6305;48.398;11.762;2023-02-23T11:00:01;18.75;;;13.35;;
12480;SDS011;6305;48.398;11.762;2023-02-23T11:02:34;16.52;;;12.23;;
12480;SDS011;6305;48.398;11.762;2023-02-23T11:05:03;17.70;;;12.13;;
12480;SDS011;6305;48.398;11.762;2023-02-23T11:07:32;17.95;;;11.90;;
12480;SDS011;6305;48.398;11.762;2023-02-23T11:10:22;17.60;;;12.35;;
12480;SDS011;6305;48.398;11.762;2023-02-23T11:12:50;16.88;;;11.52;;
12480;SDS011;6305;48.398;11.762;2023-02-23T11:15:25;17.25;;;12.07;;
12480;SDS011;6305;48.398;11.762;2023-02-23T11:17:54;16.83;;;11.73;;
12480;SDS011;6305;48.398;11.762;2023-02-23T11:20:25;15.52;;;11.10;;
12480;SDS011;6305;48.398;11.762;2023-02-23T11:22:55;17.33;;;11.65;;
12480;SDS011;6305;48.398;11.762;2023-02-23T11:25:24;16.60;;;11.90;;
12480;SDS011;6305;48.398;11.762;2023-02-23T11:27:53;17.63;;;11.30;;
12480;SDS011;6305;48.398;11.762;2023-02-23T11:30:23;16.73;;;11.93;;
12480;SDS011;6305;48.398;11.762;2023-02-23T11:32:56;15.65;;;10.90;;
12480;SDS011;6305;48.398;11.762;2023-02-23T11:35:35;16.08;;;11.48;;
12480;SDS011;6305;48.398;11.762;2023-02-23T11:38:13;14.75;;;10.07;;
12480;SDS011;6305;48.398;11.762;2023-02-23T11:40:42;17.77;;;11.38;;
12480;SDS011;6305;48.398;11.762;2023-02-23T11:43:24;16.85;;;11.23;;
12480;SDS011;6305;48.398;11.762;2023-02-23T11:45:51;17.55;;;10.98;;
12480;SDS011;6305;48.398;11.762;2023-02-23T11:48:21;14.18;;;10.70;;
12480;SDS011;6305;48.398;11.762;2023-02-23T11:50:54;15.02;;;10.20;;
12480;SDS011;6305;48.398;11.762;2023-02-23T11:53:23;15.25;;;10.35;;
12480;SDS011;6305;48.398;11.762;2023-02-23T11:55:57;15.55;;;11.20;;
12480;SDS011;6305;48.398;11.762;2023-02-23T11:58:33;15.43;;;9.73;;
12480;SDS011;6305;48.398;11.762;2023-02-23T12:01:04;15.68;;;10.18;;
12480;SDS011;6305;48.398;11.762;2023-02-23T12:03:36;15.90;;;10.85;;
12480;SDS011;6305;48.398;11.762;2023-02-23T12:06:11;13.90;;;10.10;;
12480;SDS011;6305;48.398;11.762;2023-02-23T12:08:38;15.27;;;10.52;;
12480;SDS011;6305;48.398;11.762;2023-02-23T12:11:10;17.42;;;11.63;;
12480;SDS011;6305;48.398;11.762;2023-02-23T12:13:39;15.05;;;10.45;;
12480;SDS011;6305;48.398;11.762;2023-02-23T12:16:10;16.42;;;10.20;;
12480;SDS011;6305;48.398;11.762;2023-02-23T12:18:44;15.80;;;10.52;;
12480;SDS011;6305;48.398;11.762;2023-02-23T12:21:24;17.30;;;10.40;;
12480;SDS011;6305;48.398;11.762;2023-02-23T12:24:00;14.75;;;10.15;;
12480;SDS011;6305;48.398;11.762;2023-02-23T12:26:35;14.02;;;10.27;;
12480;SDS011;6305;48.398;11.762;2023-02-23T12:29:15;15.30;;;10.32;;
12480;SDS011;6305;48.398;11.762;2023-02-23T12:31:48;13.70;;;10.05;;
12480;SDS011;6305;48.398;11.762;2023-02-23T12:34:23;13.68;;;9.68;;
12480;SDS011;6305;48.398;11.762;2023-02-23T12:36:58;14.20;;;9.20;;
12480;SDS011;6305;48.398;11.762;2023-02-23T12:39:31;11.55;;;8.57;;
12480;SDS011;6305;48.398;11.762;2023-02-23T12:42:03;11.27;;;7.75;;
12480;SDS011;6305;48.398;11.762;2023-02-23T12:44:39;11.35;;;8.63;;
12480;SDS011;6305;48.398;11.762;2023-02-23T12:47:12;10.52;;;7.72;;
12480;SDS011;6305;48.398;11.762;2023-02-23T12:49:48;9.77;;;6.97;;
12480;SDS011;6305;48.398;11.762;2023-02-23T12:52:24;8.73;;;6.60;;
12480;SDS011;6305;48.398;11.762;2023-02-23T12:54:57;11.07;;;6.75;;
12480;SDS011;6305;48.398;11.762;2023-02-23T12:57:26;10.10;;;7.47;;
12480;SDS011;6305;48.398;11.762;2023-02-23T13:00:27;10.25;;;7.15;;
12480;SDS011;6305;48.398;11.762;2023-02-23T13:03:15;6.95;;;5.72;;
12480;SDS011;6305;48.398;11.762;2023-02-23T13:06:07;9.77;;;6.30;;
12480;SDS011;6305;48.398;11.762;2023-02-23T13:08:44;7.90;;;6.13;;
12480;SDS011;6305;48.398;11.762;2023-02-23T13:11:35;9.40;;;6.85;;
12480;SDS011;6305;48.398;11.762;2023-02-23T13:14:26;7.57;;;6.15;;
12480;SDS011;6305;48.398;11.762;2023-02-23T13:16:59;8.55;;;6.20;;
12480;SDS011;6305;48.398;11.762;2023-02-23T13:19:34;8.68;;;6.40;;
12480;SDS011;6305;48.398;11.762;2023-02-23T13:22:20;8.07;;;6.38;;
12480;SDS011;6305;48.398;11.762;2023-02-23T13:24:57;7.97;;;5.65;;
12480;SDS011;6305;48.398;11.762;2023-02-23T13:27:28;7.82;;;6.13;;
12480;SDS011;6305;48.398;11.762;2023-02-23T13:29:59;7.72;;;5.60;;
12480;SDS011;6305;48.398;11.762;2023-02-23T13:32:27;8.80;;;6.07;;
12480;SDS011;6305;48.398;11.762;2023-02-23T13:34:57;7.80;;;5.90;;
12480;SDS011;6305;48.398;11.762;2023-02-23T13:37:26;9.15;;;6.40;;
12480;SDS011;6305;48.398;11.762;2023-02-23T13:40:02;8.20;;;6.20;;
12480;SDS011;6305;48.398;11.762;2023-02-23T13:42:42;8.80;;;5.40;;
12480;SDS011;6305;48.398;11.762;2023-02-23T13:45:21;7.90;;;5.90;;
12480;SDS011;6305;48.398;11.762;2023-02-23T13:47:55;7.25;;;5.20;;
12480;SDS011;6305;48.398;11.762;2023-02-23T13:50:28;6.47;;;4.90;;
12480;SDS011;6305;48.398;11.762;2023-02-23T13:53:04;7.18;;;5.03;;
12480;SDS011;6305;48.398;11.762;2023-02-23T13:55:35;6.20;;;5.00;;
12480;SDS011;6305;48.398;11.762;2023-02-23T13:58:12;8.18;;;4.88;;
12480;SDS011;6305;48.398;11.762;2023-02-23T14:00:42;7.32;;;4.93;;
12480;SDS011;6305;48.398;11.762;2023-02-23T14:03:19;7.35;;;5.13;;
12480;SDS011;6305;48.398;11.762;2023-02-23T14:05:48;7.72;;;5.82;;
12480;SDS011;6305;48.398;11.762;2023-02-23T14:08:21;8.23;;;5.28;;
12480;SDS011;6305;48.398;11.762;2023-02-23T14:10:54;8.10;;;5.70;;
12480;SDS011;6305;48.398;11.762;2023-02-23T14:13:26;7.35;;;5.22;;
12480;SDS011;6305;48.398;11.762;2023-02-23T14:16:07;7.63;;;5.80;;
12480;SDS011;6305;48.398;11.762;2023-02-23T14:18:49;8.88;;;6.25;;
12480;SDS011;6305;48.398;11.762;2023-02-23T14:21:22;8.48;;;6.20;;
12480;SDS011;6305;48.398;11.762;2023-02-23T14:24:02;8.18;;;6.05;;
12480;SDS011;6305;48.398;11.762;2023-02-23T14:26:40;9.07;;;6.07;;
12480;SDS011;6305;48.398;11.762;2023-02-23T14:29:27;11.60;;;6.47;;
12480;SDS011;6305;48.398;11.762;2023-02-23T14:32:01;10.30;;;6.80;;
12480;SDS011;6305;48.398;11.762;2023-02-23T14:34:51;8.68;;;6.38;;
12480;SDS011;6305;48.398;11.762;2023-02-23T14:37:28;9.57;;;6.85;;
12480;SDS011;6305;48.398;11.762;2023-02-23T14:40:06;9.55;;;6.90;;
12480;SDS011;6305;48.398;11.762;2023-02-23T14:42:38;9.00;;;6.93;;
12480;SDS011;6305;48.398;11.762;2023-02-23T14:45:15;8.93;;;6.07;;
12480;SDS011;6305;48.398;11.762;2023-02-23T14:47:44;11.35;;;7.10;;
12480;SDS011;6305;48.398;11.762;2023-02-23T14:50:15;7.78;;;5.88;;
12480;SDS011;6305;48.398;11.762;2023-02-23T14:52:49;9.05;;;6.65;;
12480;SDS011;6305;48.398;11.762;2023-02-23T14:55:19;10.15;;;6.00;;
12480;SDS011;6305;48.398;11.762;2023-02-23T14:57:49;8.52;;;5.70;;